sensor_id;sensor_type;location;lat;lon;timestamp;P1;durP1;ratioP1;P2;durP2;ratioP2
20095;SDS011;10207;50.942;6.900;2024-03-08T00:00:43;25.83;;;15.27;;
20095;SDS011;10207;50.942;6.900;2024-03-08T00:03:09;18.90;;;13.15;;
20095;SDS011;10207;50.942;6.900;2024-03-08T00:05:36;24.63;;;16.13;;
20095;SDS011;10207;50.942;6.900;2024-03-08T00:08:04;23.38;;;16.17;;
20095;SDS011;10207;50.942;6.900;2024-03-08T00:10:30;23.08;;;15.48;;
20095;SDS011;10207;50.942;6.900;2024-03-08T00:12:56;25.58;;;15.05;;
20095;SDS011;10207;50.942;6.900;2024-03-08T00:15:23;23.85;;;15.70;;
20095;SDS011;10207;50.942;6.900;2024-03-08T00:17:49;23.02;;;15.45;;
20095;SDS011;10207;50.942;6.900;2024-03-08T00:20:16;25.48;;;14.75;;
20095;SDS011;10207;50.942;6.900;2024-03-08T00:22:43;23.85;;;15.13;;
20095;SDS011;10207;50.942;6.900;2024-03-08T00:25:09;24.20;;;15.75;;
20095;SDS011;10207;50.942;6.900;2024-03-08T00:27:35;21.48;;;10.43;;
20095;SDS011;10207;50.942;6.900;2024-03-08T00:30:02;20.02;;;12.80;;
20095;SDS011;10207;50.942;6.900;2024-03-08T00:32:29;23.23;;;15.05;;
20095;SDS011;10207;50.942;6.900;2024-03-08T00:34:57;25.23;;;16.40;;
20095;SDS011;10207;50.942;6.900;2024-03-08T00:37:23;26.60;;;16.05;;
20095;SDS011;10207;50.942;6.900;2024-03-08T00:39:50;24.35;;;16.58;;
20095;SDS011;10207;50.942;6.900;2024-03-08T00:42:16;23.25;;;16.73;;
20095;SDS011;10207;50.942;6.900;2024-03-08T00:44:42;21.92;;;14.85;;
20095;SDS011;10207;50.942;6.900;2024-03-08T00:47:08;24.75;;;16.58;;
20095;SDS011;10207;50.942;6.900;2024-03-08T00:49:35;27.15;;;16.52;;
20095;SDS011;10207;50.942;6.900;2024-03-08T00:52:04;23.75;;;16.65;;
20095;SDS011;10207;50.942;6.900;2024-03-08T00:54:34;23.23;;;14.65;;
20095;SDS011;10207;50.942;6.900;2024-03-08T00:57:00;22.35;;;16.00;;
20095;SDS011;10207;50.942;6.900;2024-03-08T00:59:29;27.33;;;17.15;;
20095;SDS011;10207;50.942;6.900;2024-03-08T01:01:55;29.85;;;18.13;;
20095;SDS011;10207;50.942;6.900;2024-03-08T01:04:21;25.42;;;15.77;;
20095;SDS011;10207;50.942;6.900;2024-03-08T01:06:48;27.02;;;17.80;;
20095;SDS011;10207;50.942;6.900;2024-03-08T01:09:14;27.92;;;17.40;;
20095;SDS011;10207;50.942;6.900;2024-03-08T01:11:43;27.95;;;17.48;;
20095;SDS011;10207;50.942;6.900;2024-03-08T01:14:09;22.35;;;15.15;;
20095;SDS011;10207;50.942;6.900;2024-03-08T01:16:35;27.23;;;17.48;;
20095;SDS011;10207;50.942;6.900;2024-03-08T01:19:01;25.58;;;17.40;;
20095;SDS011;10207;50.942;6.900;2024-03-08T01:21:29;26.37;;;16.67;;
20095;SDS011;10207;50.942;6.900;2024-03-08T01:23:55;26.48;;;16.73;;
20095;SDS011;10207;50.942;6.900;2024-03-08T01:26:21;20.67;;;13.55;;
20095;SDS011;10207;50.942;6.900;2024-03-08T01:28:46;25.27;;;16.50;;
20095;SDS011;10207;50.942;6.900;2024-03-08T01:31:12;26.25;;;17.80;;
20095;SDS011;10207;50.942;6.900;2024-03-08T01:33:39;23.50;;;14.68;;
20095;SDS011;10207;50.942;6.900;2024-03-08T01:36:05;24.90;;;15.82;;
20095;SDS011;10207;50.942;6.900;2024-03-08T01:38:32;22.80;;;15.75;;
20095;SDS011;10207;50.942;6.900;2024-03-08T01:40:58;25.00;;;17.30;;
20095;SDS011;10207;50.942;6.900;2024-03-08T01:43:28;28.05;;;17.60;;
20095;SDS011;10207;50.942;6.900;2024-03-08T01:45:57;25.55;;;16.42;;
20095;SDS011;10207;50.942;6.900;2024-03-08T01:48:27;24.37;;;16.20;;
20095;SDS011;10207;50.942;6.900;2024-03-08T01:50:54;25.67;;;16.77;;
20095;SDS011;10207;50.942;6.900;2024-03-08T01:53:20;25.63;;;17.53;;
20095;SDS011;10207;50.942;6.900;2024-03-08T01:55:48;28.25;;;17.63;;
20095;SDS011;10207;50.942;6.900;2024-03-08T01:58:15;26.05;;;15.90;;
20095;SDS011;10207;50.942;6.900;2024-03-08T02:00:44;27.73;;;15.95;;
20095;SDS011;10207;50.942;6.900;2024-03-08T02:03:12;27.02;;;16.30;;
20095;SDS011;10207;50.942;6.900;2024-03-08T02:05:40;22.07;;;15.70;;
20095;SDS011;10207;50.942;6.900;2024-03-08T02:08:07;30.15;;;18.63;;
20095;SDS011;10207;50.942;6.900;2024-03-08T02:10:33;24.58;;;16.83;;
20095;SDS011;10207;50.942;6.900;2024-03-08T02:13:02;29.10;;;17.95;;
20095;SDS011;10207;50.942;6.900;2024-03-08T02:18:13;28.08;;;16.77;;
20095;SDS011;10207;50.942;6.900;2024-03-08T02:20:40;25.92;;;16.60;;
20095;SDS011;10207;50.942;6.900;2024-03-08T02:23:06;28.95;;;18.85;;
20095;SDS011;10207;50.942;6.900;2024-03-08T02:25:32;30.27;;;18.60;;
20095;SDS011;10207;50.942;6.900;2024-03-08T02:27:58;29.83;;;16.67;;
20095;SDS011;10207;50.942;6.900;2024-03-08T02:30:24;27.17;;;17.55;;
20095;SDS011;10207;50.942;6.900;2024-03-08T02:32:51;31.08;;;17.92;;
20095;SDS011;10207;50.942;6.900;2024-03-08T02:35:17;31.98;;;17.70;;
20095;SDS011;10207;50.942;6.900;2024-03-08T02:37:43;29.27;;;17.43;;
20095;SDS011;10207;50.942;6.900;2024-03-08T02:40:09;30.38;;;17.60;;
20095;SDS011;10207;50.942;6.900;2024-03-08T02:42:35;27.63;;;18.23;;
20095;SDS011;10207;50.942;6.900;2024-03-08T02:45:01;27.50;;;18.15;;
20095;SDS011;10207;50.942;6.900;2024-03-08T02:47:27;29.52;;;16.80;;
20095;SDS011;10207;50.942;6.900;2024-03-08T02:49:56;30.33;;;17.77;;
20095;SDS011;10207;50.942;6.900;2024-03-08T02:52:22;30.02;;;17.25;;
20095;SDS011;10207;50.942;6.900;2024-03-08T02:54:48;28.13;;;17.80;;
20095;SDS011;10207;50.942;6.900;2024-03-08T02:57:14;26.35;;;17.88;;
20095;SDS011;10207;50.942;6.900;2024-03-08T02:59:41;28.40;;;18.33;;
20095;SDS011;10207;50.942;6.900;2024-03-08T03:02:06;26.83;;;16.37;;
20095;SDS011;10207;50.942;6.900;2024-03-08T03:04:32;31.80;;;19.50;;
20095;SDS011;10207;50.942;6.900;2024-03-08T03:07:00;30.08;;;17.80;;
20095;SDS011;10207;50.942;6.900;2024-03-08T03:09:27;28.93;;;18.70;;
20095;SDS011;10207;50.942;6.900;2024-03-08T03:11:53;28.45;;;17.73;;
20095;SDS011;10207;50.942;6.900;2024-03-08T03:14:21;32.22;;;18.52;;
20095;SDS011;10207;50.942;6.900;2024-03-08T03:16:47;26.75;;;17.13;;
20095;SDS011;10207;50.942;6.900;2024-03-08T03:19:13;30.17;;;18.98;;
20095;SDS011;10207;50.942;6.900;2024-03-08T03:21:41;27.30;;;16.35;;
20095;SDS011;10207;50.942;6.900;2024-03-08T03:24:09;25.70;;;17.07;;
20095;SDS011;10207;50.942;6.900;2024-03-08T03:26:38;29.17;;;18.13;;
20095;SDS011;10207;50.942;6.900;2024-03-08T03:29:07;30.40;;;18.63;;
20095;SDS011;10207;50.942;6.900;2024-03-08T03:31:35;28.00;;;17.77;;
20095;SDS011;10207;50.942;6.900;2024-03-08T03:34:02;30.80;;;18.73;;
20095;SDS011;10207;50.942;6.900;2024-03-08T03:36:29;31.38;;;18.02;;
20095;SDS011;10207;50.942;6.900;2024-03-08T03:38:56;30.50;;;18.45;;
20095;SDS011;10207;50.942;6.900;2024-03-08T03:41:36;25.77;;;16.48;;
20095;SDS011;10207;50.942;6.900;2024-03-08T03:44:03;27.88;;;17.05;;
20095;SDS011;10207;50.942;6.900;2024-03-08T03:46:29;30.30;;;18.50;;
20095;SDS011;10207;50.942;6.900;2024-03-08T03:48:55;28.15;;;15.82;;
20095;SDS011;10207;50.942;6.900;2024-03-08T03:51:21;27.47;;;18.10;;
20095;SDS011;10207;50.942;6.900;2024-03-08T03:53:47;32.00;;;16.17;;
20095;SDS011;10207;50.942;6.900;2024-03-08T03:56:13;33.10;;;19.83;;
20095;SDS011;10207;50.942;6.900;2024-03-08T03:58:39;26.52;;;17.95;;
20095;SDS011;10207;50.942;6.900;2024-03-08T04:01:05;30.17;;;20.00;;
20095;SDS011;10207;50.942;6.900;2024-03-08T04:03:31;27.27;;;17.27;;
20095;SDS011;10207;50.942;6.900;2024-03-08T04:05:57;31.93;;;19.03;;
20095;SDS011;10207;50.942;6.900;2024-03-08T04:08:23;31.23;;;19.63;;
20095;SDS011;10207;50.942;6.900;2024-03-08T04:10:50;29.43;;;18.37;;
20095;SDS011;10207;50.942;6.900;2024-03-08T04:13:17;29.17;;;16.53;;
20095;SDS011;10207;50.942;6.900;2024-03-08T04:15:43;30.63;;;18.30;;
20095;SDS011;10207;50.942;6.900;2024-03-08T04:18:14;29.58;;;19.27;;
20095;SDS011;10207;50.942;6.900;2024-03-08T04:20:40;27.48;;;18.00;;
20095;SDS011;10207;50.942;6.900;2024-03-08T04:23:06;28.98;;;17.92;;
20095;SDS011;10207;50.942;6.900;2024-03-08T04:25:32;28.52;;;18.30;;
20095;SDS011;10207;50.942;6.900;2024-03-08T04:27:59;20.63;;;11.90;;
20095;SDS011;10207;50.942;6.900;2024-03-08T04:30:25;28.33;;;18.17;;
20095;SDS011;10207;50.942;6.900;2024-03-08T04:32:52;28.95;;;18.92;;
20095;SDS011;10207;50.942;6.900;2024-03-08T04:35:18;28.63;;;19.10;;
20095;SDS011;10207;50.942;6.900;2024-03-08T04:37:46;30.98;;;19.02;;
20095;SDS011;10207;50.942;6.900;2024-03-08T04:40:12;27.85;;;17.65;;
20095;SDS011;10207;50.942;6.900;2024-03-08T04:42:38;28.17;;;17.02;;
20095;SDS011;10207;50.942;6.900;2024-03-08T04:45:05;30.73;;;18.90;;
20095;SDS011;10207;50.942;6.900;2024-03-08T04:47:33;29.93;;;18.20;;
20095;SDS011;10207;50.942;6.900;2024-03-08T04:49:59;30.33;;;18.23;;
20095;SDS011;10207;50.942;6.900;2024-03-08T04:52:25;29.53;;;18.13;;
20095;SDS011;10207;50.942;6.900;2024-03-08T04:54:51;28.38;;;17.15;;
20095;SDS011;10207;50.942;6.900;2024-03-08T04:57:17;28.65;;;16.98;;
20095;SDS011;10207;50.942;6.900;2024-03-08T04:59:46;27.60;;;17.58;;
20095;SDS011;10207;50.942;6.900;2024-03-08T05:02:12;29.17;;;17.50;;
20095;SDS011;10207;50.942;6.900;2024-03-08T05:04:38;27.97;;;17.40;;
20095;SDS011;10207;50.942;6.900;2024-03-08T05:07:04;27.93;;;18.77;;
20095;SDS011;10207;50.942;6.900;2024-03-08T05:09:30;28.93;;;18.37;;
20095;SDS011;10207;50.942;6.900;2024-03-08T05:11:57;28.10;;;17.53;;
20095;SDS011;10207;50.942;6.900;2024-03-08T05:14:25;30.00;;;18.87;;
20095;SDS011;10207;50.942;6.900;2024-03-08T05:16:51;28.83;;;17.15;;
20095;SDS011;10207;50.942;6.900;2024-03-08T05:19:17;27.95;;;15.02;;
20095;SDS011;10207;50.942;6.900;2024-03-08T05:21:47;31.23;;;19.63;;
20095;SDS011;10207;50.942;6.900;2024-03-08T05:24:14;28.87;;;18.70;;
20095;SDS011;10207;50.942;6.900;2024-03-08T05:26:41;30.10;;;17.00;;
20095;SDS011;10207;50.942;6.900;2024-03-08T05:29:08;29.67;;;19.67;;
20095;SDS011;10207;50.942;6.900;2024-03-08T05:31:47;30.53;;;18.60;;
20095;SDS011;10207;50.942;6.900;2024-03-08T05:34:14;33.40;;;18.73;;
20095;SDS011;10207;50.942;6.900;2024-03-08T05:36:41;29.57;;;18.93;;
20095;SDS011;10207;50.942;6.900;2024-03-08T05:39:10;30.67;;;18.70;;
20095;SDS011;10207;50.942;6.900;2024-03-08T05:41:41;32.37;;;19.50;;
20095;SDS011;10207;50.942;6.900;2024-03-08T05:44:07;28.45;;;17.52;;
20095;SDS011;10207;50.942;6.900;2024-03-08T05:46:34;32.67;;;20.30;;
20095;SDS011;10207;50.942;6.900;2024-03-08T05:49:02;31.58;;;19.52;;
20095;SDS011;10207;50.942;6.900;2024-03-08T05:51:32;31.50;;;20.67;;
20095;SDS011;10207;50.942;6.900;2024-03-08T05:54:03;28.77;;;17.60;;
20095;SDS011;10207;50.942;6.900;2024-03-08T05:56:29;33.00;;;19.50;;
20095;SDS011;10207;50.942;6.900;2024-03-08T05:58:55;31.60;;;19.10;;
20095;SDS011;10207;50.942;6.900;2024-03-08T06:01:22;29.25;;;17.60;;
20095;SDS011;10207;50.942;6.900;2024-03-08T06:03:48;29.93;;;17.13;;
20095;SDS011;10207;50.942;6.900;2024-03-08T06:06:15;31.05;;;18.35;;
20095;SDS011;10207;50.942;6.900;2024-03-08T06:08:42;31.73;;;19.30;;
20095;SDS011;10207;50.942;6.900;2024-03-08T06:11:09;34.57;;;18.53;;
20095;SDS011;10207;50.942;6.900;2024-03-08T06:13:35;31.40;;;19.80;;
20095;SDS011;10207;50.942;6.900;2024-03-08T06:16:01;36.05;;;20.50;;
20095;SDS011;10207;50.942;6.900;2024-03-08T06:18:31;31.60;;;19.33;;
20095;SDS011;10207;50.942;6.900;2024-03-08T06:20:57;33.97;;;20.53;;
20095;SDS011;10207;50.942;6.900;2024-03-08T06:23:23;31.13;;;19.17;;
20095;SDS011;10207;50.942;6.900;2024-03-08T06:25:49;34.23;;;19.57;;
20095;SDS011;10207;50.942;6.900;2024-03-08T06:28:15;36.00;;;19.90;;
20095;SDS011;10207;50.942;6.900;2024-03-08T06:30:42;30.48;;;19.25;;
20095;SDS011;10207;50.942;6.900;2024-03-08T06:33:09;32.43;;;20.23;;
20095;SDS011;10207;50.942;6.900;2024-03-08T06:35:36;34.13;;;20.33;;
20095;SDS011;10207;50.942;6.900;2024-03-08T06:38:04;33.33;;;19.08;;
20095;SDS011;10207;50.942;6.900;2024-03-08T06:40:30;31.90;;;20.23;;
20095;SDS011;10207;50.942;6.900;2024-03-08T06:42:56;34.05;;;20.13;;
20095;SDS011;10207;50.942;6.900;2024-03-08T06:45:22;46.17;;;22.27;;
20095;SDS011;10207;50.942;6.900;2024-03-08T06:47:49;40.35;;;21.83;;
20095;SDS011;10207;50.942;6.900;2024-03-08T06:50:15;33.00;;;18.73;;
20095;SDS011;10207;50.942;6.900;2024-03-08T06:52:41;36.33;;;19.70;;
20095;SDS011;10207;50.942;6.900;2024-03-08T06:55:12;31.53;;;18.07;;
20095;SDS011;10207;50.942;6.900;2024-03-08T06:57:39;28.98;;;17.63;;
20095;SDS011;10207;50.942;6.900;2024-03-08T07:00:07;31.38;;;18.80;;
20095;SDS011;10207;50.942;6.900;2024-03-08T07:02:35;32.15;;;18.45;;
20095;SDS011;10207;50.942;6.900;2024-03-08T07:05:01;31.42;;;17.42;;
20095;SDS011;10207;50.942;6.900;2024-03-08T07:07:27;29.42;;;19.33;;
20095;SDS011;10207;50.942;6.900;2024-03-08T07:09:56;30.23;;;18.77;;
20095;SDS011;10207;50.942;6.900;2024-03-08T07:12:22;31.65;;;17.70;;
20095;SDS011;10207;50.942;6.900;2024-03-08T07:14:49;30.60;;;19.27;;
20095;SDS011;10207;50.942;6.900;2024-03-08T07:17:15;26.38;;;17.60;;
20095;SDS011;10207;50.942;6.900;2024-03-08T07:19:42;26.05;;;17.17;;
20095;SDS011;10207;50.942;6.900;2024-03-08T07:22:08;28.38;;;17.48;;
20095;SDS011;10207;50.942;6.900;2024-03-08T07:24:35;31.23;;;19.20;;
20095;SDS011;10207;50.942;6.900;2024-03-08T07:27:20;26.40;;;18.13;;
20095;SDS011;10207;50.942;6.900;2024-03-08T07:29:45;24.38;;;16.27;;
20095;SDS011;10207;50.942;6.900;2024-03-08T07:32:11;26.45;;;17.60;;
20095;SDS011;10207;50.942;6.900;2024-03-08T07:34:57;28.02;;;17.10;;
20095;SDS011;10207;50.942;6.900;2024-03-08T07:37:24;26.52;;;17.92;;
20095;SDS011;10207;50.942;6.900;2024-03-08T07:39:49;26.42;;;16.63;;
20095;SDS011;10207;50.942;6.900;2024-03-08T07:42:16;21.35;;;11.13;;
20095;SDS011;10207;50.942;6.900;2024-03-08T07:44:42;24.42;;;16.77;;
20095;SDS011;10207;50.942;6.900;2024-03-08T07:47:08;24.90;;;16.73;;
20095;SDS011;10207;50.942;6.900;2024-03-08T07:49:35;25.05;;;16.23;;
20095;SDS011;10207;50.942;6.900;2024-03-08T07:52:03;25.45;;;16.58;;
20095;SDS011;10207;50.942;6.900;2024-03-08T07:54:30;23.02;;;15.68;;
20095;SDS011;10207;50.942;6.900;2024-03-08T07:56:56;26.73;;;16.52;;
20095;SDS011;10207;50.942;6.900;2024-03-08T07:59:22;18.55;;;12.63;;
20095;SDS011;10207;50.942;6.900;2024-03-08T08:01:48;25.77;;;16.73;;
20095;SDS011;10207;50.942;6.900;2024-03-08T08:04:14;28.60;;;18.33;;
20095;SDS011;10207;50.942;6.900;2024-03-08T08:06:43;26.15;;;18.15;;
20095;SDS011;10207;50.942;6.900;2024-03-08T08:09:09;23.23;;;13.60;;
20095;SDS011;10207;50.942;6.900;2024-03-08T08:11:41;24.42;;;16.48;;
20095;SDS011;10207;50.942;6.900;2024-03-08T08:14:09;26.15;;;15.93;;
20095;SDS011;10207;50.942;6.900;2024-03-08T08:16:35;25.38;;;16.02;;
20095;SDS011;10207;50.942;6.900;2024-03-08T08:19:03;26.45;;;16.63;;
20095;SDS011;10207;50.942;6.900;2024-03-08T08:21:36;21.80;;;13.18;;
20095;SDS011;10207;50.942;6.900;2024-03-08T08:24:03;21.00;;;13.23;;
20095;SDS011;10207;50.942;6.900;2024-03-08T08:26:30;18.27;;;10.70;;
20095;SDS011;10207;50.942;6.900;2024-03-08T08:28:56;21.38;;;14.98;;
20095;SDS011;10207;50.942;6.900;2024-03-08T08:31:22;21.27;;;15.63;;
20095;SDS011;10207;50.942;6.900;2024-03-08T08:33:48;19.38;;;14.40;;
20095;SDS011;10207;50.942;6.900;2024-03-08T08:36:15;16.25;;;11.52;;
20095;SDS011;10207;50.942;6.900;2024-03-08T08:38:41;22.15;;;14.90;;
20095;SDS011;10207;50.942;6.900;2024-03-08T08:41:10;16.77;;;10.70;;
20095;SDS011;10207;50.942;6.900;2024-03-08T08:43:37;23.50;;;15.85;;
20095;SDS011;10207;50.942;6.900;2024-03-08T08:46:03;16.92;;;11.35;;
20095;SDS011;10207;50.942;6.900;2024-03-08T08:48:30;21.08;;;15.02;;
20095;SDS011;10207;50.942;6.900;2024-03-08T08:50:56;16.95;;;12.38;;
20095;SDS011;10207;50.942;6.900;2024-03-08T08:53:22;16.92;;;9.52;;
20095;SDS011;10207;50.942;6.900;2024-03-08T08:55:48;19.45;;;13.68;;
20095;SDS011;10207;50.942;6.900;2024-03-08T08:58:14;19.08;;;11.45;;
20095;SDS011;10207;50.942;6.900;2024-03-08T09:00:40;20.95;;;13.18;;
20095;SDS011;10207;50.942;6.900;2024-03-08T09:03:06;18.98;;;12.13;;
20095;SDS011;10207;50.942;6.900;2024-03-08T09:05:32;17.52;;;9.73;;
20095;SDS011;10207;50.942;6.900;2024-03-08T09:07:59;19.48;;;11.45;;
20095;SDS011;10207;50.942;6.900;2024-03-08T09:10:26;20.45;;;14.40;;
20095;SDS011;10207;50.942;6.900;2024-03-08T09:12:52;15.63;;;10.43;;
20095;SDS011;10207;50.942;6.900;2024-03-08T09:15:18;15.90;;;10.60;;
20095;SDS011;10207;50.942;6.900;2024-03-08T09:17:46;22.15;;;15.05;;
20095;SDS011;10207;50.942;6.900;2024-03-08T09:20:14;19.85;;;13.13;;
20095;SDS011;10207;50.942;6.900;2024-03-08T09:22:43;20.70;;;15.13;;
20095;SDS011;10207;50.942;6.900;2024-03-08T09:25:10;19.02;;;11.95;;
20095;SDS011;10207;50.942;6.900;2024-03-08T09:27:36;20.75;;;12.80;;
20095;SDS011;10207;50.942;6.900;2024-03-08T09:30:02;20.80;;;14.38;;
20095;SDS011;10207;50.942;6.900;2024-03-08T09:32:28;18.05;;;10.90;;
20095;SDS011;10207;50.942;6.900;2024-03-08T09:34:53;11.88;;;7.30;;
20095;SDS011;10207;50.942;6.900;2024-03-08T09:37:19;20.85;;;12.18;;
20095;SDS011;10207;50.942;6.900;2024-03-08T09:39:45;13.10;;;7.57;;
20095;SDS011;10207;50.942;6.900;2024-03-08T09:42:11;15.27;;;9.70;;
20095;SDS011;10207;50.942;6.900;2024-03-08T09:44:46;13.88;;;7.88;;
20095;SDS011;10207;50.942;6.900;2024-03-08T09:47:13;18.27;;;12.48;;
20095;SDS011;10207;50.942;6.900;2024-03-08T09:49:39;16.30;;;12.30;;
20095;SDS011;10207;50.942;6.900;2024-03-08T09:52:07;20.83;;;12.27;;
20095;SDS011;10207;50.942;6.900;2024-03-08T09:54:33;16.05;;;11.35;;
20095;SDS011;10207;50.942;6.900;2024-03-08T09:56:59;16.77;;;10.93;;
20095;SDS011;10207;50.942;6.900;2024-03-08T09:59:25;17.90;;;12.73;;
20095;SDS011;10207;50.942;6.900;2024-03-08T10:01:51;18.55;;;12.45;;
20095;SDS011;10207;50.942;6.900;2024-03-08T10:04:25;16.23;;;11.55;;
20095;SDS011;10207;50.942;6.900;2024-03-08T10:06:54;15.27;;;11.70;;
20095;SDS011;10207;50.942;6.900;2024-03-08T10:09:21;17.77;;;11.13;;
20095;SDS011;10207;50.942;6.900;2024-03-08T10:11:52;16.67;;;12.40;;
20095;SDS011;10207;50.942;6.900;2024-03-08T10:14:18;14.75;;;8.73;;
20095;SDS011;10207;50.942;6.900;2024-03-08T10:16:44;14.48;;;8.48;;
20095;SDS011;10207;50.942;6.900;2024-03-08T10:19:12;13.32;;;8.10;;
20095;SDS011;10207;50.942;6.900;2024-03-08T10:21:51;12.93;;;9.13;;
20095;SDS011;10207;50.942;6.900;2024-03-08T10:24:25;14.73;;;9.80;;
20095;SDS011;10207;50.942;6.900;2024-03-08T10:26:52;12.85;;;9.77;;
20095;SDS011;10207;50.942;6.900;2024-03-08T10:29:18;13.15;;;9.23;;
20095;SDS011;10207;50.942;6.900;2024-03-08T10:31:45;14.07;;;9.27;;
20095;SDS011;10207;50.942;6.900;2024-03-08T10:34:11;14.68;;;9.43;;
20095;SDS011;10207;50.942;6.900;2024-03-08T10:36:37;11.35;;;7.82;;
20095;SDS011;10207;50.942;6.900;2024-03-08T10:39:05;12.32;;;8.27;;
20095;SDS011;10207;50.942;6.900;2024-03-08T10:41:33;15.50;;;9.23;;
20095;SDS011;10207;50.942;6.900;2024-03-08T10:44:06;9.60;;;6.68;;
20095;SDS011;10207;50.942;6.900;2024-03-08T10:49:07;12.43;;;8.65;;
20095;SDS011;10207;50.942;6.900;2024-03-08T10:51:35;7.63;;;5.47;;
20095;SDS011;10207;50.942;6.900;2024-03-08T10:54:02;11.18;;;6.95;;
20095;SDS011;10207;50.942;6.900;2024-03-08T10:56:29;9.77;;;7.90;;
20095;SDS011;10207;50.942;6.900;2024-03-08T10:58:55;8.52;;;5.05;;
20095;SDS011;10207;50.942;6.900;2024-03-08T11:01:21;6.78;;;4.95;;
20095;SDS011;10207;50.942;6.900;2024-03-08T11:03:47;9.27;;;6.80;;
20095;SDS011;10207;50.942;6.900;2024-03-08T11:06:17;11.38;;;6.22;;
20095;SDS011;10207;50.942;6.900;2024-03-08T11:08:46;12.82;;;8.15;;
20095;SDS011;10207;50.942;6.900;2024-03-08T11:11:25;9.10;;;6.82;;
20095;SDS011;10207;50.942;6.900;2024-03-08T11:13:58;8.35;;;5.43;;
20095;SDS011;10207;50.942;6.900;2024-03-08T11:18:53;9.35;;;6.50;;
20095;SDS011;10207;50.942;6.900;2024-03-08T11:21:20;10.27;;;6.82;;
20095;SDS011;10207;50.942;6.900;2024-03-08T11:24:02;8.43;;;6.10;;
20095;SDS011;10207;50.942;6.900;2024-03-08T11:26:31;11.90;;;7.93;;
20095;SDS011;10207;50.942;6.900;2024-03-08T11:31:42;13.00;;;7.15;;
20095;SDS011;10207;50.942;6.900;2024-03-08T11:34:15;12.43;;;7.93;;
20095;SDS011;10207;50.942;6.900;2024-03-08T11:36:41;11.52;;;7.75;;
20095;SDS011;10207;50.942;6.900;2024-03-08T11:39:07;10.77;;;7.32;;
20095;SDS011;10207;50.942;6.900;2024-03-08T11:41:40;9.75;;;7.22;;
20095;SDS011;10207;50.942;6.900;2024-03-08T11:44:07;12.07;;;7.90;;
20095;SDS011;10207;50.942;6.900;2024-03-08T11:46:34;12.23;;;8.20;;
20095;SDS011;10207;50.942;6.900;2024-03-08T11:49:00;11.80;;;8.50;;
20095;SDS011;10207;50.942;6.900;2024-03-08T11:51:27;11.82;;;6.57;;
20095;SDS011;10207;50.942;6.900;2024-03-08T11:53:52;10.98;;;7.65;;
20095;SDS011;10207;50.942;6.900;2024-03-08T11:56:18;13.57;;;8.80;;
20095;SDS011;10207;50.942;6.900;2024-03-08T11:58:54;10.98;;;7.80;;
20095;SDS011;10207;50.942;6.900;2024-03-08T12:01:23;9.13;;;5.85;;
20095;SDS011;10207;50.942;6.900;2024-03-08T12:03:53;12.77;;;7.15;;
20095;SDS011;10207;50.942;6.900;2024-03-08T12:06:20;13.00;;;9.57;;
20095;SDS011;10207;50.942;6.900;2024-03-08T12:08:46;10.07;;;6.90;;
20095;SDS011;10207;50.942;6.900;2024-03-08T12:11:14;13.13;;;7.10;;
20095;SDS011;10207;50.942;6.900;2024-03-08T12:13:40;9.68;;;7.35;;
20095;SDS011;10207;50.942;6.900;2024-03-08T12:16:06;9.73;;;6.05;;
20095;SDS011;10207;50.942;6.900;2024-03-08T12:18:34;11.18;;;7.95;;
20095;SDS011;10207;50.942;6.900;2024-03-08T12:21:07;10.70;;;8.32;;
20095;SDS011;10207;50.942;6.900;2024-03-08T12:23:37;10.77;;;7.65;;
20095;SDS011;10207;50.942;6.900;2024-03-08T12:26:13;6.63;;;5.03;;
20095;SDS011;10207;50.942;6.900;2024-03-08T12:28:40;9.60;;;7.03;;
20095;SDS011;10207;50.942;6.900;2024-03-08T12:31:07;14.52;;;8.10;;
20095;SDS011;10207;50.942;6.900;2024-03-08T12:33:37;12.90;;;7.72;;
20095;SDS011;10207;50.942;6.900;2024-03-08T12:36:03;11.55;;;8.88;;
20095;SDS011;10207;50.942;6.900;2024-03-08T12:38:33;11.10;;;9.02;;
20095;SDS011;10207;50.942;6.900;2024-03-08T12:41:01;11.75;;;7.85;;
20095;SDS011;10207;50.942;6.900;2024-03-08T12:43:27;8.18;;;5.88;;
20095;SDS011;10207;50.942;6.900;2024-03-08T12:45:56;9.02;;;5.10;;
20095;SDS011;10207;50.942;6.900;2024-03-08T12:48:21;8.65;;;6.35;;
20095;SDS011;10207;50.942;6.900;2024-03-08T12:50:48;11.85;;;9.02;;
20095;SDS011;10207;50.942;6.900;2024-03-08T12:53:14;11.20;;;8.40;;
20095;SDS011;10207;50.942;6.900;2024-03-08T12:55:39;8.98;;;6.15;;
20095;SDS011;10207;50.942;6.900;2024-03-08T12:58:06;11.32;;;8.57;;
20095;SDS011;10207;50.942;6.900;2024-03-08T13:00:35;8.20;;;5.97;;
20095;SDS011;10207;50.942;6.900;2024-03-08T13:03:02;10.15;;;7.72;;
20095;SDS011;10207;50.942;6.900;2024-03-08T13:05:28;9.98;;;7.43;;
20095;SDS011;10207;50.942;6.900;2024-03-08T13:07:56;11.38;;;8.48;;
20095;SDS011;10207;50.942;6.900;2024-03-08T13:10:22;9.90;;;7.22;;
20095;SDS011;10207;50.942;6.900;2024-03-08T13:12:49;12.07;;;9.40;;
20095;SDS011;10207;50.942;6.900;2024-03-08T13:15:15;11.35;;;8.52;;
20095;SDS011;10207;50.942;6.900;2024-03-08T13:17:49;10.55;;;7.32;;
20095;SDS011;10207;50.942;6.900;2024-03-08T13:20:15;11.25;;;6.85;;
20095;SDS011;10207;50.942;6.900;2024-03-08T13:22:45;14.48;;;6.57;;
20095;SDS011;10207;50.942;6.900;2024-03-08T13:25:12;8.15;;;6.00;;
20095;SDS011;10207;50.942;6.900;2024-03-08T13:27:42;9.77;;;6.28;;
20095;SDS011;10207;50.942;6.900;2024-03-08T13:30:14;11.20;;;6.53;;
20095;SDS011;10207;50.942;6.900;2024-03-08T13:32:44;11.45;;;8.48;;
20095;SDS011;10207;50.942;6.900;2024-03-08T13:35:10;11.77;;;7.95;;
20095;SDS011;10207;50.942;6.900;2024-03-08T13:37:40;10.98;;;6.32;;
20095;SDS011;10207;50.942;6.900;2024-03-08T13:40:06;10.13;;;6.28;;
20095;SDS011;10207;50.942;6.900;2024-03-08T13:42:45;10.98;;;8.18;;
20095;SDS011;10207;50.942;6.900;2024-03-08T13:45:12;12.30;;;7.95;;
20095;SDS011;10207;50.942;6.900;2024-03-08T13:47:38;11.52;;;7.18;;
20095;SDS011;10207;50.942;6.900;2024-03-08T13:50:09;8.13;;;5.70;;
20095;SDS011;10207;50.942;6.900;2024-03-08T13:52:39;11.07;;;6.38;;
20095;SDS011;10207;50.942;6.900;2024-03-08T13:55:05;12.65;;;7.80;;
20095;SDS011;10207;50.942;6.900;2024-03-08T13:57:32;6.00;;;4.32;;
20095;SDS011;10207;50.942;6.900;2024-03-08T13:59:58;11.35;;;7.63;;
20095;SDS011;10207;50.942;6.900;2024-03-08T14:02:24;11.00;;;7.93;;
20095;SDS011;10207;50.942;6.900;2024-03-08T14:04:54;8.88;;;5.95;;
20095;SDS011;10207;50.942;6.900;2024-03-08T14:07:20;6.60;;;4.85;;
20095;SDS011;10207;50.942;6.900;2024-03-08T14:09:47;8.90;;;6.00;;
20095;SDS011;10207;50.942;6.900;2024-03-08T14:12:13;10.88;;;6.60;;
20095;SDS011;10207;50.942;6.900;2024-03-08T14:14:41;9.98;;;6.35;;
20095;SDS011;10207;50.942;6.900;2024-03-08T14:17:07;10.23;;;6.53;;
20095;SDS011;10207;50.942;6.900;2024-03-08T14:19:37;10.77;;;7.40;;
20095;SDS011;10207;50.942;6.900;2024-03-08T14:22:05;9.93;;;7.22;;
20095;SDS011;10207;50.942;6.900;2024-03-08T14:24:31;7.60;;;5.55;;
20095;SDS011;10207;50.942;6.900;2024-03-08T14:26:57;11.23;;;8.10;;
20095;SDS011;10207;50.942;6.900;2024-03-08T14:29:25;8.57;;;5.45;;
20095;SDS011;10207;50.942;6.900;2024-03-08T14:31:55;11.80;;;7.28;;
20095;SDS011;10207;50.942;6.900;2024-03-08T14:34:24;11.60;;;7.95;;
20095;SDS011;10207;50.942;6.900;2024-03-08T14:36:53;10.02;;;6.95;;